createdAt,value
2018-12-19T00:01:50.306Z,10.97
2018-12-19T00:07:53.650Z,10.47
2018-12-19T00:13:56.968Z,10.17
2018-12-19T00:20:00.293Z,9.20
2018-12-19T00:26:03.637Z,9.33
2018-12-19T00:32:06.989Z,10.23
2018-12-19T00:38:10.346Z,10.87
2018-12-19T00:44:13.722Z,10.43
2018-12-19T00:50:17.073Z,10.27
2018-12-19T00:56:20.400Z,11.30
2018-12-19T01:02:23.756Z,10.23
2018-12-19T01:08:32.915Z,10.33
2018-12-19T01:14:36.258Z,11.00
2018-12-19T01:20:39.618Z,9.77
2018-12-19T01:26:42.969Z,9.27
2018-12-19T01:32:46.303Z,9.53
2018-12-19T01:38:49.778Z,8.17
2018-12-19T01:44:53.094Z,8.57
2018-12-19T01:50:56.442Z,8.97
2018-12-19T01:56:59.841Z,9.40
2018-12-19T02:03:03.175Z,8.17
2018-12-19T02:09:07.168Z,7.90
2018-12-19T02:15:10.510Z,7.30
2018-12-19T02:21:13.834Z,7.10
2018-12-19T02:27:17.171Z,6.13
2018-12-19T02:33:20.635Z,7.10
2018-12-19T02:39:23.984Z,7.30
2018-12-19T02:45:27.304Z,7.10
2018-12-19T02:51:30.648Z,8.07
2018-12-19T02:57:33.973Z,7.33
2018-12-19T03:03:37.302Z,7.00
2018-12-19T03:09:43.093Z,8.70
2018-12-19T03:15:46.077Z,8.80
2018-12-19T03:21:49.408Z,6.90
2018-12-19T03:27:52.778Z,6.90
2018-12-19T03:33:56.128Z,8.10
2018-12-19T03:39:59.466Z,7.27
2018-12-19T03:46:02.820Z,6.40
2018-12-19T03:52:06.189Z,6.83
2018-12-19T03:58:09.534Z,7.23
2018-12-19T04:04:12.863Z,6.93
2018-12-19T04:10:16.191Z,5.57
2018-12-19T04:16:19.520Z,5.37
2018-12-19T04:22:22.880Z,5.60
2018-12-19T04:28:26.223Z,5.77
2018-12-19T04:34:29.562Z,5.70
2018-12-19T04:40:32.926Z,5.60
2018-12-19T04:46:36.273Z,6.50
2018-12-19T04:52:40.193Z,6.67
2018-12-19T04:58:43.554Z,6.07
2018-12-19T05:04:46.889Z,6.40
2018-12-19T05:10:50.238Z,5.40
2018-12-19T05:16:53.610Z,5.97
2018-12-19T05:22:56.933Z,6.43
2018-12-19T05:29:00.300Z,5.80
2018-12-19T05:35:05.013Z,5.70
2018-12-19T05:41:08.362Z,6.90
2018-12-19T05:47:12.211Z,5.90
2018-12-19T05:53:15.543Z,6.17
2018-12-19T05:59:18.883Z,6.57
2018-12-19T06:05:22.246Z,6.23
2018-12-19T06:11:25.592Z,5.90
2018-12-19T06:17:28.913Z,5.93
2018-12-19T06:23:32.252Z,7.00
2018-12-19T06:29:35.621Z,17.17
2018-12-19T06:35:38.982Z,9.13
2018-12-19T06:41:42.318Z,7.77
2018-12-19T06:47:45.654Z,6.87
2018-12-19T06:53:49.063Z,7.27
2018-12-19T06:59:52.419Z,6.70
2018-12-19T07:05:55.737Z,7.07
2018-12-19T07:11:59.074Z,7.37
2018-12-19T07:18:02.700Z,7.17
2018-12-19T07:24:06.182Z,6.80
2018-12-19T07:30:09.596Z,6.67
2018-12-19T07:36:13.064Z,6.63
2018-12-19T07:42:16.408Z,6.03
2018-12-19T07:48:19.768Z,6.10
2018-12-19T07:54:23.111Z,7.47
2018-12-19T08:00:27.577Z,7.67
2018-12-19T08:06:31.235Z,7.57
2018-12-19T08:12:36.138Z,7.53
2018-12-19T08:18:39.854Z,9.10
2018-12-19T08:24:43.197Z,8.73
2018-12-19T08:30:46.543Z,8.57
2018-12-19T08:36:50.149Z,8.30
2018-12-19T08:42:53.490Z,8.30
2018-12-19T08:48:56.853Z,8.80
2018-12-19T08:55:00.191Z,16.40
2018-12-19T09:01:03.701Z,9.90
2018-12-19T09:07:07.036Z,10.30
2018-12-19T09:13:10.376Z,9.77
2018-12-19T09:19:13.703Z,8.63
2018-12-19T09:25:17.048Z,9.93
2018-12-19T09:31:20.398Z,10.63
2018-12-19T09:37:23.719Z,10.70
2018-12-19T09:43:27.067Z,10.27
2018-12-19T09:49:30.389Z,10.07
2018-12-19T09:55:33.717Z,11.73
2018-12-19T10:01:37.055Z,10.27
2018-12-19T10:07:40.390Z,9.47
2018-12-19T10:13:43.750Z,11.40
2018-12-19T10:19:47.102Z,9.17
2018-12-19T10:25:52.535Z,8.93
2018-12-19T10:31:55.880Z,10.80
2018-12-19T10:37:59.228Z,9.90
2018-12-19T10:44:02.964Z,12.27
2018-12-19T10:50:08.240Z,9.03
2018-12-19T10:56:11.591Z,9.60
2018-12-19T11:02:14.919Z,10.27
2018-12-19T11:08:18.259Z,10.00
2018-12-19T11:14:21.599Z,10.07
2018-12-19T11:20:24.944Z,11.43
2018-12-19T11:26:28.578Z,10.60
2018-12-19T11:32:31.931Z,9.70
2018-12-19T11:38:35.262Z,9.77
2018-12-19T11:44:38.578Z,8.87
2018-12-19T11:50:41.923Z,10.80
2018-12-19T11:56:45.252Z,10.80
2018-12-19T12:02:48.626Z,9.23
2018-12-19T12:08:52.190Z,10.60
2018-12-19T12:14:55.530Z,10.63
2018-12-19T12:20:58.870Z,10.07
2018-12-19T12:27:02.206Z,11.50
2018-12-19T12:33:05.521Z,10.50
2018-12-19T12:39:08.865Z,10.77
2018-12-19T12:45:12.223Z,11.00
2018-12-19T12:51:16.222Z,13.00
2018-12-19T12:57:19.554Z,10.63
2018-12-19T13:03:22.879Z,11.43
2018-12-19T13:09:26.232Z,11.60
2018-12-19T13:15:38.949Z,10.40
2018-12-19T13:21:42.312Z,11.13
2018-12-19T13:27:45.657Z,13.37
2018-12-19T13:33:49.009Z,12.23
2018-12-19T13:39:52.372Z,11.30
2018-12-19T13:45:55.710Z,12.90
2018-12-19T13:51:59.041Z,12.70
2018-12-19T13:58:07.005Z,13.60
2018-12-19T14:04:07.764Z,11.97
2018-12-19T14:10:11.098Z,12.90
2018-12-19T14:16:14.441Z,13.93
2018-12-19T14:22:17.872Z,14.90
2018-12-19T14:28:21.267Z,21.90
2018-12-19T14:34:24.598Z,16.30
2018-12-19T14:40:27.925Z,14.13
2018-12-19T14:46:31.255Z,14.33
2018-12-19T14:52:34.588Z,16.40
2018-12-19T14:58:37.941Z,14.00
2018-12-19T15:04:41.291Z,14.07
2018-12-19T15:10:44.718Z,16.87
2018-12-19T15:16:48.113Z,13.20
2018-12-19T15:22:51.446Z,14.07
2018-12-19T15:28:54.786Z,13.47
2018-12-19T15:34:58.128Z,14.10
2018-12-19T15:41:01.462Z,13.20
2018-12-19T15:47:04.796Z,13.50
2018-12-19T15:53:08.127Z,14.80
2018-12-19T15:59:11.480Z,13.30
2018-12-19T16:05:14.820Z,14.43
2018-12-19T16:11:18.162Z,15.70
2018-12-19T16:17:21.501Z,16.20
2018-12-19T16:23:24.875Z,17.40
2018-12-19T16:29:28.205Z,16.83
2018-12-19T16:35:31.534Z,19.00
2018-12-19T16:41:34.949Z,16.30
2018-12-19T16:47:38.296Z,16.97
2018-12-19T16:53:41.752Z,22.13
2018-12-19T16:59:45.091Z,16.00
2018-12-19T17:05:48.432Z,14.97
2018-12-19T17:11:51.791Z,15.70
2018-12-19T17:17:55.144Z,14.90
2018-12-19T17:23:58.492Z,15.23
2018-12-19T17:30:01.832Z,15.93
2018-12-19T17:36:05.832Z,18.67
2018-12-19T17:42:09.179Z,15.50
2018-12-19T17:48:12.535Z,16.60
2018-12-19T17:54:15.889Z,16.20
2018-12-19T18:00:19.240Z,18.23
2018-12-19T18:06:22.579Z,14.73
2018-12-19T18:12:25.904Z,16.57
2018-12-19T18:18:29.233Z,16.90
2018-12-19T18:24:32.559Z,14.93
2018-12-19T18:30:35.904Z,17.17
2018-12-19T18:36:39.235Z,20.10
2018-12-19T18:42:42.582Z,21.53
2018-12-19T18:48:45.938Z,20.60
2018-12-19T18:54:49.275Z,20.03
2018-12-19T19:00:52.752Z,19.93
2018-12-19T19:06:56.154Z,20.13
2018-12-19T19:12:59.612Z,22.40
2018-12-19T19:19:02.951Z,19.57
2018-12-19T19:25:06.391Z,18.37
2018-12-19T19:31:09.727Z,19.83
2018-12-19T19:37:13.061Z,18.83
2018-12-19T19:43:16.389Z,18.67
2018-12-19T19:49:19.717Z,18.87
2018-12-19T19:55:23.160Z,18.63
2018-12-19T20:01:26.516Z,16.90
2018-12-19T20:07:29.848Z,16.00
2018-12-19T20:13:33.627Z,16.67
2018-12-19T20:19:37.086Z,16.10
2018-12-19T20:25:40.437Z,16.67
2018-12-19T20:31:43.799Z,16.37
2018-12-19T20:37:47.153Z,15.03
2018-12-19T20:43:50.501Z,17.10
2018-12-19T20:49:53.861Z,17.60
2018-12-19T20:56:03.574Z,16.70
2018-12-19T21:02:03.410Z,16.77
2018-12-19T21:08:06.966Z,18.30
2018-12-19T21:14:10.357Z,17.87
2018-12-19T21:20:13.697Z,19.33
2018-12-19T21:26:17.035Z,17.83
2018-12-19T21:32:20.399Z,18.90
2018-12-19T21:38:23.739Z,19.67
2018-12-19T21:44:27.083Z,19.93
2018-12-19T21:50:31.355Z,18.93
2018-12-19T21:56:34.695Z,17.77
2018-12-19T22:02:38.028Z,19.27
2018-12-19T22:08:41.474Z,18.60
2018-12-19T22:14:44.808Z,17.90
2018-12-19T22:20:48.150Z,18.23
2018-12-19T22:26:51.471Z,19.10
2018-12-19T22:32:54.808Z,19.00
2018-12-19T22:38:58.151Z,17.77
2018-12-19T22:45:01.712Z,16.73
2018-12-19T22:51:05.249Z,18.60
2018-12-19T22:57:08.623Z,16.40
2018-12-19T23:03:12.246Z,15.97
2018-12-19T23:09:15.676Z,17.10
2018-12-19T23:15:20.300Z,16.67
2018-12-19T23:21:24.733Z,16.63
2018-12-19T23:27:28.274Z,16.77
2018-12-19T23:33:31.671Z,16.27
2018-12-19T23:39:35.010Z,16.77
2018-12-19T23:45:38.398Z,16.53
2018-12-19T23:51:41.806Z,16.63
2018-12-19T23:57:45.218Z,16.17
